sensor_id;sensor_type;location;lat;lon;timestamp;pressure;altitude;pressure_sealevel;temperature;humidity
83264;BME280;73156;50.988;11.034;2023-10-09T05:50:58;99552.00;;;17.06;63.52
83264;BME280;73156;50.988;11.034;2023-10-09T05:53:35;99552.97;;;17.23;61.93
83264;BME280;73156;50.988;11.034;2023-10-09T05:56:10;99557.00;;;17.39;62.60
83264;BME280;73156;50.988;11.034;2023-10-09T05:58:54;99566.97;;;17.58;61.75
83264;BME280;73156;50.988;11.034;2023-10-09T06:01:31;99551.28;;;17.75;61.16
83264;BME280;73156;50.988;11.034;2023-10-09T06:04:15;99561.81;;;17.96;60.57
83264;BME280;73156;50.988;11.034;2023-10-09T06:06:43;99568.06;;;18.14;59.68
83264;BME280;73156;50.988;11.034;2023-10-09T06:09:20;99574.59;;;18.31;59.25
83264;BME280;73156;50.988;11.034;2023-10-09T06:11:48;99573.84;;;18.47;59.06
83264;BME280;73156;50.988;11.034;2023-10-09T06:14:18;99583.75;;;18.66;58.39
83264;BME280;73156;50.988;11.034;2023-10-09T06:16:57;99563.63;;;18.76;57.66
83264;BME280;73156;50.988;11.034;2023-10-09T06:19:24;99583.59;;;19.01;57.12
83264;BME280;73156;50.988;11.034;2023-10-09T06:22:05;99590.09;;;19.18;56.44
83264;BME280;73156;50.988;11.034;2023-10-09T06:24:37;99591.50;;;19.32;55.90
83264;BME280;73156;50.988;11.034;2023-10-09T06:27:02;99590.34;;;19.44;55.34
83264;BME280;73156;50.988;11.034;2023-10-09T06:29:30;99589.19;;;19.57;54.97
83264;BME280;73156;50.988;11.034;2023-10-09T06:32:04;99583.25;;;19.70;54.83
83264;BME280;73156;50.988;11.034;2023-10-09T06:35:00;99596.88;;;19.83;54.14
83264;BME280;73156;50.988;11.034;2023-10-09T06:37:49;99594.25;;;19.93;53.83
83264;BME280;73156;50.988;11.034;2023-10-09T06:40:27;99593.31;;;20.04;53.52
83264;BME280;73156;50.988;11.034;2023-10-09T06:43:06;99590.13;;;20.12;53.21
83264;BME280;73156;50.988;11.034;2023-10-09T06:45:47;99598.66;;;20.22;53.32
83264;BME280;73156;50.988;11.034;2023-10-09T06:48:19;99600.09;;;20.25;53.10
83264;BME280;73156;50.988;11.034;2023-10-09T06:51:04;99585.50;;;20.23;53.15
83264;BME280;73156;50.988;11.034;2023-10-09T06:53:48;99589.31;;;20.33;52.81
83264;BME280;73156;50.988;11.034;2023-10-09T06:56:24;99603.16;;;20.45;52.53
83264;BME280;73156;50.988;11.034;2023-10-09T06:58:52;99597.66;;;20.50;52.57
83264;BME280;73156;50.988;11.034;2023-10-09T07:01:22;99601.38;;;20.55;52.46
83264;BME280;73156;50.988;11.034;2023-10-09T07:03:51;99603.09;;;20.61;52.21
83264;BME280;73156;50.988;11.034;2023-10-09T07:06:20;99592.44;;;20.58;51.89
83264;BME280;73156;50.988;11.034;2023-10-09T07:09:01;99620.47;;;20.85;51.48
83264;BME280;73156;50.988;11.034;2023-10-09T07:11:36;99639.53;;;20.88;51.33
83264;BME280;73156;50.988;11.034;2023-10-09T07:14:15;99619.09;;;20.87;51.04
83264;BME280;73156;50.988;11.034;2023-10-09T07:19:30;99639.38;;;21.16;50.92
83264;BME280;73156;50.988;11.034;2023-10-09T07:22:05;99624.00;;;21.18;51.05
83264;BME280;73156;50.988;11.034;2023-10-09T07:24:41;99631.63;;;21.23;50.54
83264;BME280;73156;50.988;11.034;2023-10-09T07:27:09;99626.84;;;21.23;50.49
83264;BME280;73156;50.988;11.034;2023-10-09T07:29:38;99624.97;;;21.29;50.79
83264;BME280;73156;50.988;11.034;2023-10-09T07:32:16;99620.22;;;21.29;50.71
83264;BME280;73156;50.988;11.034;2023-10-09T07:34:50;99633.63;;;21.27;50.72
83264;BME280;73156;50.988;11.034;2023-10-09T07:37:20;99631.47;;;21.34;50.52
83264;BME280;73156;50.988;11.034;2023-10-09T07:39:50;99629.56;;;21.40;50.33
83264;BME280;73156;50.988;11.034;2023-10-09T07:42:23;99612.09;;;21.28;50.25
83264;BME280;73156;50.988;11.034;2023-10-09T07:45:10;99627.88;;;21.39;50.33
83264;BME280;73156;50.988;11.034;2023-10-09T07:47:47;99651.47;;;21.48;50.07
83264;BME280;73156;50.988;11.034;2023-10-09T07:50:36;99656.88;;;21.54;50.09
83264;BME280;73156;50.988;11.034;2023-10-09T07:53:14;99656.41;;;21.62;49.90
83264;BME280;73156;50.988;11.034;2023-10-09T07:55:52;99659.50;;;21.66;49.54
83264;BME280;73156;50.988;11.034;2023-10-09T07:58:26;99659.34;;;21.72;49.36
83264;BME280;73156;50.988;11.034;2023-10-09T08:00:56;99644.94;;;21.64;49.49
83264;BME280;73156;50.988;11.034;2023-10-09T08:03:41;99661.06;;;21.78;49.50
83264;BME280;73156;50.988;11.034;2023-10-09T08:06:10;99661.41;;;21.82;49.06
83264;BME280;73156;50.988;11.034;2023-10-09T08:08:54;99664.22;;;21.87;49.02
83264;BME280;73156;50.988;11.034;2023-10-09T08:11:38;99635.56;;;21.75;49.06
83264;BME280;73156;50.988;11.034;2023-10-09T08:14:25;99665.91;;;21.88;49.21
83264;BME280;73156;50.988;11.034;2023-10-09T08:17:00;99672.38;;;21.88;49.21
83264;BME280;73156;50.988;11.034;2023-10-09T08:19:48;99670.75;;;21.97;49.55
83264;BME280;73156;50.988;11.034;2023-10-09T08:22:24;99678.38;;;22.02;49.72
83264;BME280;73156;50.988;11.034;2023-10-09T08:24:50;99673.63;;;22.02;49.13
83264;BME280;73156;50.988;11.034;2023-10-09T08:27:28;99679.50;;;22.01;49.27
83264;BME280;73156;50.988;11.034;2023-10-09T08:30:01;99679.78;;;22.04;49.24
83264;BME280;73156;50.988;11.034;2023-10-09T08:32:47;99675.66;;;22.07;49.24
83264;BME280;73156;50.988;11.034;2023-10-09T08:35:32;99678.16;;;22.08;49.01
83264;BME280;73156;50.988;11.034;2023-10-09T08:38:13;99680.13;;;22.08;49.51
83264;BME280;73156;50.988;11.034;2023-10-09T08:40:42;99687.19;;;22.15;49.48
83264;BME280;73156;50.988;11.034;2023-10-09T08:43:09;99698.97;;;22.17;48.73
83264;BME280;73156;50.988;11.034;2023-10-09T08:45:38;99697.31;;;22.16;49.74
83264;BME280;73156;50.988;11.034;2023-10-09T08:48:08;99702.94;;;22.21;50.42
83264;BME280;73156;50.988;11.034;2023-10-09T08:50:35;99699.91;;;22.28;49.51
83264;BME280;73156;50.988;11.034;2023-10-09T08:53:01;99697.97;;;22.33;49.53
83264;BME280;73156;50.988;11.034;2023-10-09T08:55:28;99696.66;;;22.41;49.27
83264;BME280;73156;50.988;11.034;2023-10-09T08:57:54;99690.25;;;22.45;49.27
83264;BME280;73156;50.988;11.034;2023-10-09T09:00:20;99701.47;;;22.45;49.09
83264;BME280;73156;50.988;11.034;2023-10-09T09:02:54;99688.06;;;22.52;48.81
83264;BME280;73156;50.988;11.034;2023-10-09T09:05:20;99687.50;;;22.51;48.92
83264;BME280;73156;50.988;11.034;2023-10-09T09:07:46;99682.47;;;22.52;49.01
83264;BME280;73156;50.988;11.034;2023-10-09T09:10:11;99673.50;;;22.51;49.16
83264;BME280;73156;50.988;11.034;2023-10-09T09:12:46;99673.50;;;22.51;48.69
83264;BME280;73156;50.988;11.034;2023-10-09T09:15:16;99668.72;;;22.51;48.91
83264;BME280;73156;50.988;11.034;2023-10-09T09:17:45;99670.69;;;22.51;48.86
83264;BME280;73156;50.988;11.034;2023-10-09T09:20:23;99671.28;;;22.58;48.74
83264;BME280;73156;50.988;11.034;2023-10-09T09:22:54;99668.50;;;22.63;48.58
83264;BME280;73156;50.988;11.034;2023-10-09T09:25:39;99650.81;;;22.57;48.62
83264;BME280;73156;50.988;11.034;2023-10-09T09:28:09;99658.41;;;22.62;48.28
83264;BME280;73156;50.988;11.034;2023-10-09T09:30:38;99659.53;;;22.61;48.92
83264;BME280;73156;50.988;11.034;2023-10-09T09:33:24;99659.22;;;22.57;48.69
83264;BME280;73156;50.988;11.034;2023-10-09T09:36:05;99654.19;;;22.59;48.94
83264;BME280;73156;50.988;11.034;2023-10-09T09:38:32;99650.56;;;22.64;48.74
83264;BME280;73156;50.988;11.034;2023-10-09T09:41:07;99644.41;;;22.67;48.59
83264;BME280;73156;50.988;11.034;2023-10-09T09:43:34;99645.81;;;22.69;48.38
83264;BME280;73156;50.988;11.034;2023-10-09T09:46:01;99642.75;;;22.71;48.75
83264;BME280;73156;50.988;11.034;2023-10-09T09:48:38;99635.72;;;22.68;48.64
83264;BME280;73156;50.988;11.034;2023-10-09T09:51:12;99630.44;;;22.72;48.22
83264;BME280;73156;50.988;11.034;2023-10-09T09:53:39;99622.91;;;22.77;48.54
83264;BME280;73156;50.988;11.034;2023-10-09T09:56:05;99624.84;;;22.82;48.46
83264;BME280;73156;50.988;11.034;2023-10-09T09:58:31;99627.09;;;22.80;48.27
83264;BME280;73156;50.988;11.034;2023-10-09T10:01:08;99622.84;;;22.72;47.79
83264;BME280;73156;50.988;11.034;2023-10-09T10:04:19;99633.25;;;22.77;49.23
83264;BME280;73156;50.988;11.034;2023-10-09T10:06:47;99618.69;;;22.80;48.58
83264;BME280;73156;50.988;11.034;2023-10-09T10:09:34;99614.50;;;22.82;47.98
83264;BME280;73156;50.988;11.034;2023-10-09T10:12:03;99616.16;;;22.78;48.52
83264;BME280;73156;50.988;11.034;2023-10-09T10:17:17;99603.00;;;22.79;48.10
83264;BME280;73156;50.988;11.034;2023-10-09T10:22:42;99605.94;;;22.57;47.63
83264;BME280;73156;50.988;11.034;2023-10-09T10:25:32;99619.22;;;22.35;48.41
83264;BME280;73156;50.988;11.034;2023-10-09T10:28:20;99614.38;;;22.20;48.74
83264;BME280;73156;50.988;11.034;2023-10-09T10:31:08;99620.16;;;22.09;49.17
83264;BME280;73156;50.988;11.034;2023-10-09T10:36:20;99610.75;;;21.88;49.76
83264;BME280;73156;50.988;11.034;2023-10-09T10:39:06;99589.84;;;21.69;50.21
83264;BME280;73156;50.988;11.034;2023-10-09T10:41:36;99610.91;;;21.77;50.37
83264;BME280;73156;50.988;11.034;2023-10-09T10:44:24;99615.31;;;21.68;50.32
83264;BME280;73156;50.988;11.034;2023-10-09T10:47:05;99606.00;;;21.62;50.68
83264;BME280;73156;50.988;11.034;2023-10-09T10:49:48;99592.22;;;21.56;50.56
83264;BME280;73156;50.988;11.034;2023-10-09T10:52:22;99589.97;;;21.53;50.98
83264;BME280;73156;50.988;11.034;2023-10-09T10:55:14;99598.28;;;21.48;51.14
83264;BME280;73156;50.988;11.034;2023-10-09T10:57:44;99590.13;;;21.41;51.36
83264;BME280;73156;50.988;11.034;2023-10-09T11:00:19;99587.00;;;21.38;51.55
83264;BME280;73156;50.988;11.034;2023-10-09T11:03:03;99568.47;;;21.32;51.67
83264;BME280;73156;50.988;11.034;2023-10-09T11:05:44;99570.41;;;21.31;51.52
83264;BME280;73156;50.988;11.034;2023-10-09T11:08:16;99585.78;;;21.29;52.00
83264;BME280;73156;50.988;11.034;2023-10-09T11:10:47;99564.19;;;21.24;52.10
83264;BME280;73156;50.988;11.034;2023-10-09T11:13:27;99569.22;;;21.22;52.27
83264;BME280;73156;50.988;11.034;2023-10-09T11:15:56;99561.34;;;21.19;52.04
83264;BME280;73156;50.988;11.034;2023-10-09T11:18:39;99555.44;;;21.16;52.22
83264;BME280;73156;50.988;11.034;2023-10-09T11:21:08;99555.38;;;21.11;52.31
83264;BME280;73156;50.988;11.034;2023-10-09T11:23:33;99546.34;;;21.04;52.91
83264;BME280;73156;50.988;11.034;2023-10-09T11:25:59;99549.69;;;21.01;52.74
83264;BME280;73156;50.988;11.034;2023-10-09T11:28:43;99489.09;;;20.63;52.64
83264;BME280;73156;50.988;11.034;2023-10-09T11:31:14;99562.78;;;20.95;53.00
83264;BME280;73156;50.988;11.034;2023-10-09T11:33:50;99559.59;;;20.92;52.80
83264;BME280;73156;50.988;11.034;2023-10-09T11:36:23;99574.97;;;20.89;53.05
83264;BME280;73156;50.988;11.034;2023-10-09T11:38:58;99548.19;;;20.72;52.88
83264;BME280;73156;50.988;11.034;2023-10-09T11:41:42;99570.41;;;20.83;53.17
83264;BME280;73156;50.988;11.034;2023-10-09T11:44:09;99565.94;;;20.82;53.29
83264;BME280;73156;50.988;11.034;2023-10-09T11:46:56;99570.91;;;20.80;53.59
83264;BME280;73156;50.988;11.034;2023-10-09T11:49:23;99570.59;;;20.77;53.59
83264;BME280;73156;50.988;11.034;2023-10-09T11:52:05;99569.44;;;20.73;53.57
83264;BME280;73156;50.988;11.034;2023-10-09T11:54:34;99570.31;;;20.73;53.84
83264;BME280;73156;50.988;11.034;2023-10-09T11:57:01;99551.16;;;20.65;53.66
83264;BME280;73156;50.988;11.034;2023-10-09T11:59:33;99558.53;;;20.71;53.61
83264;BME280;73156;50.988;11.034;2023-10-09T12:02:05;99554.31;;;20.69;53.84
83264;BME280;73156;50.988;11.034;2023-10-09T12:04:36;99547.94;;;20.73;54.03
83264;BME280;73156;50.988;11.034;2023-10-09T12:07:01;99546.22;;;20.72;53.97
83264;BME280;73156;50.988;11.034;2023-10-09T12:09:34;99529.44;;;20.72;53.91
83264;BME280;73156;50.988;11.034;2023-10-09T12:12:01;99519.84;;;20.63;54.09
83264;BME280;73156;50.988;11.034;2023-10-09T12:14:27;99532.72;;;20.64;53.96
83264;BME280;73156;50.988;11.034;2023-10-09T12:16:58;99478.59;;;20.27;54.27
83264;BME280;73156;50.988;11.034;2023-10-09T12:19:24;99469.81;;;20.19;54.24
83264;BME280;73156;50.988;11.034;2023-10-09T12:21:49;99532.91;;;20.58;54.42
83264;BME280;73156;50.988;11.034;2023-10-09T12:24:14;99534.84;;;20.57;54.25
83264;BME280;73156;50.988;11.034;2023-10-09T12:26:44;99521.34;;;20.49;54.60
83264;BME280;73156;50.988;11.034;2023-10-09T12:29:11;99531.41;;;20.50;54.10
83264;BME280;73156;50.988;11.034;2023-10-09T12:31:36;99535.13;;;20.56;54.55
83264;BME280;73156;50.988;11.034;2023-10-09T12:34:02;99541.81;;;20.55;54.57
83264;BME280;73156;50.988;11.034;2023-10-09T12:36:28;99539.03;;;20.55;54.59
83264;BME280;73156;50.988;11.034;2023-10-09T12:38:53;99530.03;;;20.53;54.49
83264;BME280;73156;50.988;11.034;2023-10-09T12:41:23;99531.16;;;20.52;54.46
83264;BME280;73156;50.988;11.034;2023-10-09T12:43:56;99504.38;;;20.34;54.52
83264;BME280;73156;50.988;11.034;2023-10-09T12:46:24;99528.88;;;20.49;54.70
83264;BME280;73156;50.988;11.034;2023-10-09T12:48:51;99519.66;;;20.48;54.79
83264;BME280;73156;50.988;11.034;2023-10-09T12:51:19;99505.94;;;20.47;54.61
83264;BME280;73156;50.988;11.034;2023-10-09T12:53:46;99514.31;;;20.47;55.01
83264;BME280;73156;50.988;11.034;2023-10-09T12:56:14;99514.84;;;20.44;54.71
83264;BME280;73156;50.988;11.034;2023-10-09T12:58:40;99521.28;;;20.44;54.70
83264;BME280;73156;50.988;11.034;2023-10-09T13:01:17;99507.19;;;20.34;55.24
83264;BME280;73156;50.988;11.034;2023-10-09T13:03:44;99530.19;;;20.41;54.98
83264;BME280;73156;50.988;11.034;2023-10-09T13:06:09;99526.53;;;20.41;55.09
83264;BME280;73156;50.988;11.034;2023-10-09T13:08:37;99528.22;;;20.42;54.68
83264;BME280;73156;50.988;11.034;2023-10-09T13:11:07;99526.53;;;20.41;55.05
83264;BME280;73156;50.988;11.034;2023-10-09T13:13:41;99517.84;;;20.37;55.16
83264;BME280;73156;50.988;11.034;2023-10-09T13:16:22;99513.94;;;20.38;54.97
83264;BME280;73156;50.988;11.034;2023-10-09T13:18:52;99527.91;;;20.38;55.10
83264;BME280;73156;50.988;11.034;2023-10-09T13:21:27;99537.91;;;20.34;55.59
83264;BME280;73156;50.988;11.034;2023-10-09T13:23:57;99554.69;;;20.34;55.59
83264;BME280;73156;50.988;11.034;2023-10-09T13:26:22;99569.22;;;20.36;55.55
83264;BME280;73156;50.988;11.034;2023-10-09T13:28:56;99569.22;;;20.36;55.29
83264;BME280;73156;50.988;11.034;2023-10-09T13:31:23;99573.88;;;20.31;55.58
83264;BME280;73156;50.988;11.034;2023-10-09T13:33:53;99586.53;;;20.33;55.46
83264;BME280;73156;50.988;11.034;2023-10-09T13:36:25;99584.56;;;20.34;55.23
83264;BME280;73156;50.988;11.034;2023-10-09T13:39:03;99590.25;;;20.60;55.29
83264;BME280;73156;50.988;11.034;2023-10-09T13:41:47;99590.44;;;20.54;54.75
83264;BME280;73156;50.988;11.034;2023-10-09T13:44:13;99554.06;;;20.32;55.63
83264;BME280;73156;50.988;11.034;2023-10-09T13:46:38;99607.13;;;20.49;54.83
83264;BME280;73156;50.988;11.034;2023-10-09T13:49:10;99607.94;;;20.44;55.10
83264;BME280;73156;50.988;11.034;2023-10-09T13:51:42;99598.78;;;20.32;55.85
83264;BME280;73156;50.988;11.034;2023-10-09T13:54:12;99590.34;;;20.27;55.96
83264;BME280;73156;50.988;11.034;2023-10-09T13:56:48;99589.22;;;20.28;55.48
83264;BME280;73156;50.988;11.034;2023-10-09T13:59:18;99587.81;;;20.26;55.58
83264;BME280;73156;50.988;11.034;2023-10-09T14:01:45;99592.78;;;20.24;55.59
83264;BME280;73156;50.988;11.034;2023-10-09T14:04:13;99594.16;;;20.21;56.01
83264;BME280;73156;50.988;11.034;2023-10-09T14:06:43;99579.34;;;20.21;55.76
83264;BME280;73156;50.988;11.034;2023-10-09T14:09:10;99572.91;;;20.20;55.97
83264;BME280;73156;50.988;11.034;2023-10-09T14:11:35;99571.22;;;20.19;55.90
83264;BME280;73156;50.988;11.034;2023-10-09T14:14:04;99574.28;;;20.18;56.13
83264;BME280;73156;50.988;11.034;2023-10-09T14:16:35;99577.06;;;20.18;56.13
83264;BME280;73156;50.988;11.034;2023-10-09T14:19:01;99570.63;;;20.17;55.94
83264;BME280;73156;50.988;11.034;2023-10-09T14:21:32;99580.38;;;20.15;56.26
83264;BME280;73156;50.988;11.034;2023-10-09T14:23:58;99590.19;;;20.17;56.09
83264;BME280;73156;50.988;11.034;2023-10-09T14:26:25;99579.25;;;20.16;56.02
83264;BME280;73156;50.988;11.034;2023-10-09T14:28:51;99582.06;;;20.16;56.31
83264;BME280;73156;50.988;11.034;2023-10-09T14:31:18;99578.19;;;20.17;56.13
83264;BME280;73156;50.988;11.034;2023-10-09T14:33:48;99581.34;;;20.09;56.15
83264;BME280;73156;50.988;11.034;2023-10-09T14:36:16;99571.47;;;20.01;55.98
83264;BME280;73156;50.988;11.034;2023-10-09T14:38:43;99600.78;;;20.15;56.25
83264;BME280;73156;50.988;11.034;2023-10-09T14:41:12;99596.63;;;20.18;56.27
83264;BME280;73156;50.988;11.034;2023-10-09T14:43:37;99610.84;;;20.16;56.29
83264;BME280;73156;50.988;11.034;2023-10-09T14:46:02;99610.84;;;20.16;56.21
83264;BME280;73156;50.988;11.034;2023-10-09T14:48:32;99605.75;;;20.13;56.50
83264;BME280;73156;50.988;11.034;2023-10-09T14:51:02;99598.50;;;20.12;56.45
83264;BME280;73156;50.988;11.034;2023-10-09T14:53:30;99597.38;;;20.13;56.16
83264;BME280;73156;50.988;11.034;2023-10-09T14:55:58;99588.31;;;20.06;56.40
83264;BME280;73156;50.988;11.034;2023-10-09T14:58:29;99597.63;;;20.12;56.81
83264;BME280;73156;50.988;11.034;2023-10-09T15:00:56;99602.41;;;20.11;56.57
83264;BME280;73156;50.988;11.034;2023-10-09T15:03:22;99578.06;;;19.95;56.85
83264;BME280;73156;50.988;11.034;2023-10-09T15:05:48;99599.22;;;20.08;56.72
83264;BME280;73156;50.988;11.034;2023-10-09T15:08:14;99601.53;;;20.11;56.53
83264;BME280;73156;50.988;11.034;2023-10-09T15:10:50;99595.09;;;20.10;56.85
83264;BME280;73156;50.988;11.034;2023-10-09T15:13:21;99602.41;;;20.11;56.50
83264;BME280;73156;50.988;11.034;2023-10-09T15:15:52;99603.47;;;20.10;56.87
83264;BME280;73156;50.988;11.034;2023-10-09T15:18:20;99597.88;;;20.10;56.68
83264;BME280;73156;50.988;11.034;2023-10-09T15:20:47;99595.31;;;20.09;56.90
83264;BME280;73156;50.988;11.034;2023-10-09T15:23:12;99570.31;;;19.97;56.78
83264;BME280;73156;50.988;11.034;2023-10-09T15:25:38;99591.94;;;20.07;56.93
83264;BME280;73156;50.988;11.034;2023-10-09T15:28:10;99587.19;;;20.07;56.87
83264;BME280;73156;50.988;11.034;2023-10-09T15:30:37;99593.06;;;20.06;56.94
83264;BME280;73156;50.988;11.034;2023-10-09T15:33:06;99599.22;;;20.08;57.00
83264;BME280;73156;50.988;11.034;2023-10-09T15:35:32;99602.88;;;20.08;56.85
83264;BME280;73156;50.988;11.034;2023-10-09T15:38:00;99579.25;;;19.99;57.00
83264;BME280;73156;50.988;11.034;2023-10-09T15:40:31;99602.13;;;20.13;56.55
83264;BME280;73156;50.988;11.034;2023-10-09T15:43:00;99601.16;;;20.07;56.70
83264;BME280;73156;50.988;11.034;2023-10-09T15:45:25;99596.81;;;20.11;56.68
83264;BME280;73156;50.988;11.034;2023-10-09T15:47:53;99598.50;;;20.12;56.83
83264;BME280;73156;50.988;11.034;2023-10-09T15:50:20;99601.53;;;20.11;56.95
83264;BME280;73156;50.988;11.034;2023-10-09T15:52:48;99606.50;;;20.09;57.04
83264;BME280;73156;50.988;11.034;2023-10-09T15:55:17;99616.38;;;20.11;56.73
83264;BME280;73156;50.988;11.034;2023-10-09T15:57:46;99608.81;;;20.12;56.81
83264;BME280;73156;50.988;11.034;2023-10-09T16:00:14;99606.03;;;20.12;56.69
83264;BME280;73156;50.988;11.034;2023-10-09T16:02:43;99602.13;;;20.13;56.76
83264;BME280;73156;50.988;11.034;2023-10-09T16:05:09;99606.03;;;20.12;56.57
83264;BME280;73156;50.988;11.034;2023-10-09T16:07:38;99613.78;;;20.10;56.72
83264;BME280;73156;50.988;11.034;2023-10-09T16:10:07;99624.75;;;20.11;56.96
83264;BME280;73156;50.988;11.034;2023-10-09T16:12:35;99626.44;;;20.12;57.23
83264;BME280;73156;50.988;11.034;2023-10-09T16:15:00;99637.00;;;20.10;57.46
83264;BME280;73156;50.988;11.034;2023-10-09T16:17:26;99646.22;;;20.11;57.41
83264;BME280;73156;50.988;11.034;2023-10-09T16:19:51;99644.50;;;20.10;57.32
83264;BME280;73156;50.988;11.034;2023-10-09T16:22:17;99637.59;;;20.12;57.04
83264;BME280;73156;50.988;11.034;2023-10-09T16:24:43;99649.34;;;20.14;57.04
83264;BME280;73156;50.988;11.034;2023-10-09T16:27:10;99650.72;;;20.12;57.24
83264;BME280;73156;50.988;11.034;2023-10-09T16:29:35;99657.41;;;20.11;57.24
83264;BME280;73156;50.988;11.034;2023-10-09T16:32:01;99663.84;;;20.11;57.34
83264;BME280;73156;50.988;11.034;2023-10-09T16:34:26;99640.53;;;20.06;57.11
83264;BME280;73156;50.988;11.034;2023-10-09T16:36:52;99650.09;;;20.10;57.27
83264;BME280;73156;50.988;11.034;2023-10-09T16:39:17;99659.34;;;20.10;57.50
83264;BME280;73156;50.988;11.034;2023-10-09T16:41:48;99661.53;;;20.08;57.44
83264;BME280;73156;50.988;11.034;2023-10-09T16:44:14;99667.38;;;20.07;57.63
83264;BME280;73156;50.988;11.034;2023-10-09T16:46:43;99676.09;;;20.10;56.80
83264;BME280;73156;50.988;11.034;2023-10-09T16:49:10;99659.16;;;20.00;57.19
83264;BME280;73156;50.988;11.034;2023-10-09T16:51:38;99678.91;;;20.10;57.18
83264;BME280;73156;50.988;11.034;2023-10-09T16:54:03;99672.09;;;20.06;57.09
83264;BME280;73156;50.988;11.034;2023-10-09T16:56:29;99685.81;;;20.08;57.42
83264;BME280;73156;50.988;11.034;2023-10-09T16:58:58;99650.78;;;19.84;57.62
83264;BME280;73156;50.988;11.034;2023-10-09T17:01:25;99672.34;;;20.05;57.38
83264;BME280;73156;50.988;11.034;2023-10-09T17:03:52;99671.25;;;20.06;57.29
83264;BME280;73156;50.988;11.034;2023-10-09T17:06:23;99659.47;;;20.04;57.44
83264;BME280;73156;50.988;11.034;2023-10-09T17:08:49;99658.06;;;20.01;57.53
83264;BME280;73156;50.988;11.034;2023-10-09T17:11:16;99666.75;;;20.05;57.42
83264;BME280;73156;50.988;11.034;2023-10-09T17:13:46;99670.41;;;20.05;57.23
83264;BME280;73156;50.988;11.034;2023-10-09T17:16:18;99669.03;;;20.08;57.27
83264;BME280;73156;50.988;11.034;2023-10-09T17:21:10;99679.66;;;20.06;57.41
83264;BME280;73156;50.988;11.034;2023-10-09T17:23:43;99674.31;;;20.04;57.47
83264;BME280;73156;50.988;11.034;2023-10-09T17:26:10;99679.66;;;20.06;57.45
83264;BME280;73156;50.988;11.034;2023-10-09T17:28:37;99680.16;;;20.03;57.73
83264;BME280;73156;50.988;11.034;2023-10-09T17:31:03;99684.88;;;20.02;57.95
83264;BME280;73156;50.988;11.034;2023-10-09T17:33:30;99685.13;;;20.01;57.72
83264;BME280;73156;50.988;11.034;2023-10-09T17:35:57;99697.97;;;20.02;57.57
83264;BME280;73156;50.988;11.034;2023-10-09T17:38:22;99692.94;;;19.99;57.71
83264;BME280;73156;50.988;11.034;2023-10-09T17:40:48;99689.88;;;20.00;57.79
83264;BME280;73156;50.988;11.034;2023-10-09T17:43:17;99688.16;;;19.99;57.78
83264;BME280;73156;50.988;11.034;2023-10-09T17:45:43;99636.28;;;19.70;57.84
83264;BME280;73156;50.988;11.034;2023-10-09T17:48:08;99677.84;;;20.00;57.58
83264;BME280;73156;50.988;11.034;2023-10-09T17:50:35;99676.97;;;20.11;57.52
83264;BME280;73156;50.988;11.034;2023-10-09T17:53:42;99675.25;;;20.26;57.48
83264;BME280;73156;50.988;11.034;2023-10-09T17:56:08;99680.22;;;20.41;57.27
83264;BME280;73156;50.988;11.034;2023-10-09T17:58:34;99681.34;;;20.40;57.09
83264;BME280;73156;50.988;11.034;2023-10-09T18:00:59;99678.47;;;20.51;57.20
83264;BME280;73156;50.988;11.034;2023-10-09T18:03:30;99677.22;;;20.64;56.99
83264;BME280;73156;50.988;11.034;2023-10-09T18:05:56;99682.47;;;20.77;56.13
83264;BME280;73156;50.988;11.034;2023-10-09T18:08:21;99683.19;;;20.89;56.15
83264;BME280;73156;50.988;11.034;2023-10-09T18:10:56;99693.78;;;21.03;55.50
83264;BME280;73156;50.988;11.034;2023-10-09T18:13:23;99691.44;;;21.17;54.33
83264;BME280;73156;50.988;11.034;2023-10-09T18:15:50;99696.00;;;21.23;55.13
83264;BME280;73156;50.988;11.034;2023-10-09T18:18:15;99693.94;;;21.40;53.99
83264;BME280;73156;50.988;11.034;2023-10-09T18:20:47;99682.34;;;21.53;53.43
83264;BME280;73156;50.988;11.034;2023-10-09T18:23:14;99687.34;;;21.72;53.10
83264;BME280;73156;50.988;11.034;2023-10-09T18:25:40;99690.56;;;21.86;53.10
83264;BME280;73156;50.988;11.034;2023-10-09T18:28:05;99692.66;;;22.00;53.09
83264;BME280;73156;50.988;11.034;2023-10-09T18:30:31;99677.81;;;22.00;53.08
83264;BME280;73156;50.988;11.034;2023-10-09T18:32:57;99685.19;;;22.11;52.89
83264;BME280;73156;50.988;11.034;2023-10-09T18:35:24;99688.34;;;22.19;52.56
83264;BME280;73156;50.988;11.034;2023-10-09T18:37:53;99684.22;;;22.27;52.51
83264;BME280;73156;50.988;11.034;2023-10-09T18:40:24;99686.78;;;22.33;52.39
83264;BME280;73156;50.988;11.034;2023-10-09T18:42:53;99662.94;;;22.31;52.17
83264;BME280;73156;50.988;11.034;2023-10-09T18:45:18;99693.31;;;22.44;52.05
83264;BME280;73156;50.988;11.034;2023-10-09T18:47:44;99688.91;;;22.48;52.13
83264;BME280;73156;50.988;11.034;2023-10-09T18:50:10;99673.75;;;22.49;51.68
83264;BME280;73156;50.988;11.034;2023-10-09T18:52:41;99692.06;;;22.62;51.79
83264;BME280;73156;50.988;11.034;2023-10-09T18:55:16;99703.03;;;22.68;51.60
83264;BME280;73156;50.988;11.034;2023-10-09T18:57:43;99698.56;;;22.72;51.44
83264;BME280;73156;50.988;11.034;2023-10-09T19:00:11;99694.69;;;22.73;51.62
